Collyer, Kansas
Current Conditions -  °F | °C
As of 10:53 AM on Saturday 22 Nov 2014 (Local Time) from KHLC Reporting Station
Clear Clear  
Wind Chill: 48°   Ceiling: Unl
Heat Index: 48°   Visibility: 10mi
Dew Point: 31°   Wind: 3mph
Humidity: 52%   Direction: NA
Pressure: 29.79"   Gusts: NA
Location:  39.04°N, 100.12°W
Report Text: KHLC 221653Z AUTO VRB03KT 10SM CLR 09/M01 A2979 RMK AO2 SLP096 T00891006
Loading
Personal Weather Stations






























Interactive Weather Map New forecast layout! Learn more

10-Day Weather Forecast

Advertisements
Track Severe Weather on mobile